sensor_id;sensor_type;location;lat;lon;timestamp;noise_LAeq;noise_LA_min;noise_LA_max;noise_LA01;noise_LA95
71020;Laerm;58902;51.436;5.980;2022-12-18T00:00:04;38.30;35.00;51.42;;
71020;Laerm;58902;51.436;5.980;2022-12-18T00:00:15;42.19;35.33;52.34;;
71020;Laerm;58902;51.436;5.980;2022-12-18T00:00:25;37.28;35.10;39.94;;
71020;Laerm;58902;51.436;5.980;2022-12-18T00:00:39;37.05;34.21;39.34;;
71020;Laerm;58902;51.436;5.980;2022-12-18T00:00:50;36.89;33.24;41.89;;
71020;Laerm;58902;51.436;5.980;2022-12-18T00:01:00;38.21;33.12;43.39;;
71020;Laerm;58902;51.436;5.980;2022-12-18T00:01:17;36.02;33.33;38.68;;
71020;Laerm;58902;51.436;5.980;2022-12-18T00:01:32;36.31;33.08;39.34;;
71020;Laerm;58902;51.436;5.980;2022-12-18T00:01:43;36.98;33.62;43.52;;
71020;Laerm;58902;51.436;5.980;2022-12-18T00:01:53;38.66;35.03;42.46;;
71020;Laerm;58902;51.436;5.980;2022-12-18T00:02:06;37.29;32.45;46.11;;
71020;Laerm;58902;51.436;5.980;2022-12-18T00:02:17;41.11;32.86;46.97;;
71020;Laerm;58902;51.436;5.980;2022-12-18T00:02:27;44.04;35.63;47.31;;
71020;Laerm;58902;51.436;5.980;2022-12-18T00:02:37;36.10;33.63;38.82;;
71020;Laerm;58902;51.436;5.980;2022-12-18T00:02:48;38.83;34.61;43.55;;
71020;Laerm;58902;51.436;5.980;2022-12-18T00:02:58;37.94;35.45;47.91;;
71020;Laerm;58902;51.436;5.980;2022-12-18T00:03:08;46.52;35.65;57.19;;
71020;Laerm;58902;51.436;5.980;2022-12-18T00:03:19;73.36;56.85;77.87;;
71020;Laerm;58902;51.436;5.980;2022-12-18T00:03:29;72.42;68.87;77.21;;
71020;Laerm;58902;51.436;5.980;2022-12-18T00:03:40;65.50;43.90;73.91;;
71020;Laerm;58902;51.436;5.980;2022-12-18T00:03:51;43.40;39.35;49.91;;
71020;Laerm;58902;51.436;5.980;2022-12-18T00:04:02;39.28;36.50;42.64;;
71020;Laerm;58902;51.436;5.980;2022-12-18T00:04:22;37.27;34.19;41.89;;
71020;Laerm;58902;51.436;5.980;2022-12-18T00:04:33;37.30;34.56;41.85;;
71020;Laerm;58902;51.436;5.980;2022-12-18T00:04:43;38.48;35.67;43.75;;
71020;Laerm;58902;51.436;5.980;2022-12-18T00:04:54;37.57;35.06;41.18;;
71020;Laerm;58902;51.436;5.980;2022-12-18T00:05:04;35.57;33.25;39.76;;
71020;Laerm;58902;51.436;5.980;2022-12-18T00:05:15;35.37;33.28;39.15;;
71020;Laerm;58902;51.436;5.980;2022-12-18T00:05:25;34.79;32.51;37.60;;
71020;Laerm;58902;51.436;5.980;2022-12-18T00:05:35;35.27;32.88;38.25;;
71020;Laerm;58902;51.436;5.980;2022-12-18T00:05:49;38.77;34.38;45.34;;
71020;Laerm;58902;51.436;5.980;2022-12-18T00:06:00;43.15;36.41;46.71;;
71020;Laerm;58902;51.436;5.980;2022-12-18T00:06:11;37.86;35.03;39.62;;
71020;Laerm;58902;51.436;5.980;2022-12-18T00:06:22;39.30;36.45;44.37;;
71020;Laerm;58902;51.436;5.980;2022-12-18T00:06:33;41.94;37.98;44.97;;
71020;Laerm;58902;51.436;5.980;2022-12-18T00:06:43;67.60;40.58;76.93;;
71020;Laerm;58902;51.436;5.980;2022-12-18T00:06:54;72.24;67.78;76.38;;
71020;Laerm;58902;51.436;5.980;2022-12-18T00:07:05;74.74;58.32;80.50;;
71020;Laerm;58902;51.436;5.980;2022-12-18T00:07:15;51.30;44.96;58.61;;
71020;Laerm;58902;51.436;5.980;2022-12-18T00:07:26;45.21;39.73;49.65;;
71020;Laerm;58902;51.436;5.980;2022-12-18T00:07:36;42.43;39.67;45.80;;
71020;Laerm;58902;51.436;5.980;2022-12-18T00:07:47;41.47;38.48;44.20;;
71020;Laerm;58902;51.436;5.980;2022-12-18T00:07:57;40.75;38.38;43.28;;
71020;Laerm;58902;51.436;5.980;2022-12-18T00:08:08;41.80;38.17;45.03;;
71020;Laerm;58902;51.436;5.980;2022-12-18T00:08:18;40.95;38.39;43.87;;
71020;Laerm;58902;51.436;5.980;2022-12-18T00:08:29;40.80;38.30;43.77;;
71020;Laerm;58902;51.436;5.980;2022-12-18T00:08:40;43.55;38.51;52.60;;
71020;Laerm;58902;51.436;5.980;2022-12-18T00:08:50;40.37;35.96;48.01;;
71020;Laerm;58902;51.436;5.980;2022-12-18T00:09:01;38.84;34.58;46.65;;
71020;Laerm;58902;51.436;5.980;2022-12-18T00:09:13;40.44;35.24;48.15;;
71020;Laerm;58902;51.436;5.980;2022-12-18T00:09:23;39.20;35.38;43.88;;
71020;Laerm;58902;51.436;5.980;2022-12-18T00:09:33;39.96;36.25;44.81;;
71020;Laerm;58902;51.436;5.980;2022-12-18T00:09:44;37.14;33.71;40.64;;
71020;Laerm;58902;51.436;5.980;2022-12-18T00:09:54;39.04;32.94;45.92;;
71020;Laerm;58902;51.436;5.980;2022-12-18T00:10:04;41.09;35.80;46.56;;
71020;Laerm;58902;51.436;5.980;2022-12-18T00:10:15;37.17;32.35;43.38;;
71020;Laerm;58902;51.436;5.980;2022-12-18T00:10:26;44.02;35.23;52.93;;
71020;Laerm;58902;51.436;5.980;2022-12-18T00:10:37;41.06;37.53;45.57;;
71020;Laerm;58902;51.436;5.980;2022-12-18T00:10:47;45.71;36.90;50.32;;
71020;Laerm;58902;51.436;5.980;2022-12-18T00:11:03;38.99;35.84;42.91;;
71020;Laerm;58902;51.436;5.980;2022-12-18T00:11:15;41.94;34.63;47.55;;
71020;Laerm;58902;51.436;5.980;2022-12-18T00:11:27;42.72;38.65;46.63;;
71020;Laerm;58902;51.436;5.980;2022-12-18T00:11:38;40.01;35.79;43.25;;
71020;Laerm;58902;51.436;5.980;2022-12-18T00:11:48;37.96;34.37;43.02;;
71020;Laerm;58902;51.436;5.980;2022-12-18T00:11:59;37.65;33.78;43.69;;
71020;Laerm;58902;51.436;5.980;2022-12-18T00:12:09;40.06;34.80;47.64;;
71020;Laerm;58902;51.436;5.980;2022-12-18T00:12:20;39.04;33.20;44.51;;
71020;Laerm;58902;51.436;5.980;2022-12-18T00:12:30;38.86;32.63;43.35;;
71020;Laerm;58902;51.436;5.980;2022-12-18T00:12:40;37.07;32.79;41.65;;
71020;Laerm;58902;51.436;5.980;2022-12-18T00:12:51;36.06;32.26;39.76;;
71020;Laerm;58902;51.436;5.980;2022-12-18T00:13:01;37.42;32.89;41.90;;
71020;Laerm;58902;51.436;5.980;2022-12-18T00:13:12;37.25;32.55;42.11;;
71020;Laerm;58902;51.436;5.980;2022-12-18T00:13:22;35.24;31.63;41.86;;
71020;Laerm;58902;51.436;5.980;2022-12-18T00:13:33;34.63;31.97;37.96;;
71020;Laerm;58902;51.436;5.980;2022-12-18T00:13:43;33.71;31.22;36.49;;
71020;Laerm;58902;51.436;5.980;2022-12-18T00:13:54;34.02;31.18;37.32;;
71020;Laerm;58902;51.436;5.980;2022-12-18T00:14:05;33.93;30.84;38.68;;
71020;Laerm;58902;51.436;5.980;2022-12-18T00:14:15;35.28;31.22;39.24;;
71020;Laerm;58902;51.436;5.980;2022-12-18T00:14:26;34.62;31.02;41.71;;
71020;Laerm;58902;51.436;5.980;2022-12-18T00:14:38;35.40;32.13;39.58;;
71020;Laerm;58902;51.436;5.980;2022-12-18T00:14:49;35.52;31.39;39.76;;
71020;Laerm;58902;51.436;5.980;2022-12-18T00:14:59;33.61;30.67;39.27;;
71020;Laerm;58902;51.436;5.980;2022-12-18T00:15:09;34.73;31.32;40.52;;
71020;Laerm;58902;51.436;5.980;2022-12-18T00:15:20;35.61;31.90;41.09;;
71020;Laerm;58902;51.436;5.980;2022-12-18T00:15:33;34.75;30.80;39.64;;
71020;Laerm;58902;51.436;5.980;2022-12-18T00:15:44;33.68;30.77;39.60;;
71020;Laerm;58902;51.436;5.980;2022-12-18T00:15:54;35.71;30.31;45.24;;
71020;Laerm;58902;51.436;5.980;2022-12-18T00:16:06;36.33;32.30;42.62;;
71020;Laerm;58902;51.436;5.980;2022-12-18T00:16:17;36.52;32.91;42.07;;
71020;Laerm;58902;51.436;5.980;2022-12-18T00:16:31;34.98;31.75;41.10;;
71020;Laerm;58902;51.436;5.980;2022-12-18T00:16:43;35.36;31.64;46.39;;
71020;Laerm;58902;51.436;5.980;2022-12-18T00:16:54;36.18;33.07;39.84;;
71020;Laerm;58902;51.436;5.980;2022-12-18T00:17:04;35.84;33.07;39.95;;
71020;Laerm;58902;51.436;5.980;2022-12-18T00:17:15;37.58;34.64;41.07;;
71020;Laerm;58902;51.436;5.980;2022-12-18T00:17:25;36.65;33.98;40.21;;
71020;Laerm;58902;51.436;5.980;2022-12-18T00:17:35;36.59;33.14;40.78;;
71020;Laerm;58902;51.436;5.980;2022-12-18T00:17:45;35.82;33.14;41.82;;
71020;Laerm;58902;51.436;5.980;2022-12-18T00:17:56;39.41;34.90;43.78;;
71020;Laerm;58902;51.436;5.980;2022-12-18T00:18:06;37.73;34.75;43.33;;
71020;Laerm;58902;51.436;5.980;2022-12-18T00:18:17;38.97;34.33;49.75;;
71020;Laerm;58902;51.436;5.980;2022-12-18T00:18:27;38.02;33.40;46.33;;
71020;Laerm;58902;51.436;5.980;2022-12-18T00:18:38;42.93;34.86;54.97;;
71020;Laerm;58902;51.436;5.980;2022-12-18T00:18:49;45.16;35.64;57.77;;
71020;Laerm;58902;51.436;5.980;2022-12-18T00:18:59;40.01;35.49;47.31;;
71020;Laerm;58902;51.436;5.980;2022-12-18T00:19:10;38.63;34.18;45.34;;
71020;Laerm;58902;51.436;5.980;2022-12-18T00:19:20;38.37;33.46;54.43;;
71020;Laerm;58902;51.436;5.980;2022-12-18T00:19:31;37.29;34.07;41.17;;
71020;Laerm;58902;51.436;5.980;2022-12-18T00:19:41;38.56;34.33;44.21;;
71020;Laerm;58902;51.436;5.980;2022-12-18T00:19:51;37.69;34.26;42.27;;
71020;Laerm;58902;51.436;5.980;2022-12-18T00:20:02;37.72;33.42;41.26;;
71020;Laerm;58902;51.436;5.980;2022-12-18T00:20:12;38.74;33.88;41.45;;
71020;Laerm;58902;51.436;5.980;2022-12-18T00:20:22;37.09;34.86;40.27;;
71020;Laerm;58902;51.436;5.980;2022-12-18T00:20:36;36.20;33.44;39.41;;
71020;Laerm;58902;51.436;5.980;2022-12-18T00:20:46;37.60;33.38;41.45;;
71020;Laerm;58902;51.436;5.980;2022-12-18T00:21:00;37.60;34.92;41.09;;
71020;Laerm;58902;51.436;5.980;2022-12-18T00:21:11;35.31;32.35;42.05;;
71020;Laerm;58902;51.436;5.980;2022-12-18T00:21:22;35.22;33.22;38.23;;
71020;Laerm;58902;51.436;5.980;2022-12-18T00:21:32;36.42;32.87;42.15;;
71020;Laerm;58902;51.436;5.980;2022-12-18T00:21:43;38.30;35.59;44.04;;
71020;Laerm;58902;51.436;5.980;2022-12-18T00:21:54;37.75;35.17;40.67;;
71020;Laerm;58902;51.436;5.980;2022-12-18T00:22:04;36.64;33.10;39.20;;
71020;Laerm;58902;51.436;5.980;2022-12-18T00:22:16;37.67;34.46;40.80;;
71020;Laerm;58902;51.436;5.980;2022-12-18T00:22:26;36.94;32.98;46.11;;
71020;Laerm;58902;51.436;5.980;2022-12-18T00:22:36;36.06;32.84;43.47;;
71020;Laerm;58902;51.436;5.980;2022-12-18T00:22:47;35.15;32.97;37.48;;
71020;Laerm;58902;51.436;5.980;2022-12-18T00:22:57;38.28;33.12;45.43;;
71020;Laerm;58902;51.436;5.980;2022-12-18T00:23:07;37.95;33.46;44.68;;
71020;Laerm;58902;51.436;5.980;2022-12-18T00:23:17;40.53;32.96;49.83;;
71020;Laerm;58902;51.436;5.980;2022-12-18T00:23:28;37.10;33.32;42.10;;
71020;Laerm;58902;51.436;5.980;2022-12-18T00:23:39;36.27;32.21;47.46;;
71020;Laerm;58902;51.436;5.980;2022-12-18T00:23:50;37.21;33.86;41.19;;
71020;Laerm;58902;51.436;5.980;2022-12-18T00:24:01;35.58;32.32;39.85;;
71020;Laerm;58902;51.436;5.980;2022-12-18T00:24:12;36.38;31.68;41.80;;
71020;Laerm;58902;51.436;5.980;2022-12-18T00:24:22;35.93;34.03;39.30;;
71020;Laerm;58902;51.436;5.980;2022-12-18T00:24:32;36.54;33.71;38.73;;
71020;Laerm;58902;51.436;5.980;2022-12-18T00:24:43;37.05;35.24;42.28;;
71020;Laerm;58902;51.436;5.980;2022-12-18T00:24:53;37.30;34.91;42.00;;
71020;Laerm;58902;51.436;5.980;2022-12-18T00:25:03;35.83;33.00;41.34;;
71020;Laerm;58902;51.436;5.980;2022-12-18T00:25:14;34.47;32.79;37.24;;
71020;Laerm;58902;51.436;5.980;2022-12-18T00:25:24;33.52;32.48;35.11;;
71020;Laerm;58902;51.436;5.980;2022-12-18T00:25:35;33.53;31.09;37.02;;
71020;Laerm;58902;51.436;5.980;2022-12-18T00:25:46;33.79;30.80;41.50;;
71020;Laerm;58902;51.436;5.980;2022-12-18T00:26:03;32.97;30.68;35.38;;
71020;Laerm;58902;51.436;5.980;2022-12-18T00:26:15;32.81;29.77;37.22;;
71020;Laerm;58902;51.436;5.980;2022-12-18T00:26:27;34.27;31.15;45.91;;
71020;Laerm;58902;51.436;5.980;2022-12-18T00:26:37;33.23;31.19;37.31;;
71020;Laerm;58902;51.436;5.980;2022-12-18T00:26:48;33.95;30.84;39.68;;
71020;Laerm;58902;51.436;5.980;2022-12-18T00:26:58;33.84;31.71;37.41;;
71020;Laerm;58902;51.436;5.980;2022-12-18T00:27:09;34.05;31.55;36.11;;
71020;Laerm;58902;51.436;5.980;2022-12-18T00:27:19;34.21;31.94;38.91;;
71020;Laerm;58902;51.436;5.980;2022-12-18T00:27:29;35.17;32.67;37.67;;
71020;Laerm;58902;51.436;5.980;2022-12-18T00:27:40;35.39;33.09;39.02;;
71020;Laerm;58902;51.436;5.980;2022-12-18T00:27:50;36.69;33.40;43.01;;
71020;Laerm;58902;51.436;5.980;2022-12-18T00:28:01;36.16;33.69;40.64;;
71020;Laerm;58902;51.436;5.980;2022-12-18T00:28:12;36.21;33.79;40.32;;
71020;Laerm;58902;51.436;5.980;2022-12-18T00:28:22;36.57;33.78;39.26;;
71020;Laerm;58902;51.436;5.980;2022-12-18T00:28:32;37.98;34.12;41.18;;
71020;Laerm;58902;51.436;5.980;2022-12-18T00:28:43;36.11;33.57;38.97;;
71020;Laerm;58902;51.436;5.980;2022-12-18T00:28:54;36.11;34.19;38.79;;
71020;Laerm;58902;51.436;5.980;2022-12-18T00:29:10;36.14;33.80;40.00;;
71020;Laerm;58902;51.436;5.980;2022-12-18T00:29:21;35.43;33.43;37.92;;
71020;Laerm;58902;51.436;5.980;2022-12-18T00:29:31;37.36;33.53;44.94;;
71020;Laerm;58902;51.436;5.980;2022-12-18T00:29:42;35.02;31.80;40.64;;
71020;Laerm;58902;51.436;5.980;2022-12-18T00:29:52;36.70;34.52;40.09;;
71020;Laerm;58902;51.436;5.980;2022-12-18T00:30:02;35.48;33.09;37.93;;
71020;Laerm;58902;51.436;5.980;2022-12-18T00:30:13;35.02;31.33;37.98;;
71020;Laerm;58902;51.436;5.980;2022-12-18T00:30:23;34.59;31.60;42.31;;
71020;Laerm;58902;51.436;5.980;2022-12-18T00:30:34;35.26;32.67;39.43;;
71020;Laerm;58902;51.436;5.980;2022-12-18T00:30:44;34.76;31.99;38.15;;
71020;Laerm;58902;51.436;5.980;2022-12-18T00:31:04;33.63;32.14;35.33;;
71020;Laerm;58902;51.436;5.980;2022-12-18T00:31:15;38.22;32.19;53.03;;
71020;Laerm;58902;51.436;5.980;2022-12-18T00:31:26;33.69;31.73;37.67;;
71020;Laerm;58902;51.436;5.980;2022-12-18T00:31:37;38.76;32.15;44.26;;
71020;Laerm;58902;51.436;5.980;2022-12-18T00:31:48;33.62;31.48;36.23;;
71020;Laerm;58902;51.436;5.980;2022-12-18T00:31:58;33.60;31.72;35.48;;
71020;Laerm;58902;51.436;5.980;2022-12-18T00:32:08;34.21;31.72;37.37;;
71020;Laerm;58902;51.436;5.980;2022-12-18T00:32:19;33.61;30.19;41.33;;
71020;Laerm;58902;51.436;5.980;2022-12-18T00:32:30;31.81;30.60;38.73;;
71020;Laerm;58902;51.436;5.980;2022-12-18T00:32:40;31.77;30.50;33.72;;
71020;Laerm;58902;51.436;5.980;2022-12-18T00:32:50;33.13;31.40;34.50;;
71020;Laerm;58902;51.436;5.980;2022-12-18T00:33:01;31.99;30.82;33.37;;
71020;Laerm;58902;51.436;5.980;2022-12-18T00:33:11;33.05;31.31;34.41;;
71020;Laerm;58902;51.436;5.980;2022-12-18T00:33:21;33.27;31.55;36.79;;
71020;Laerm;58902;51.436;5.980;2022-12-18T00:33:32;36.16;30.86;46.14;;
71020;Laerm;58902;51.436;5.980;2022-12-18T00:33:43;34.84;31.16;41.36;;
71020;Laerm;58902;51.436;5.980;2022-12-18T00:33:54;34.30;32.72;37.01;;
71020;Laerm;58902;51.436;5.980;2022-12-18T00:34:05;34.04;32.58;35.51;;
71020;Laerm;58902;51.436;5.980;2022-12-18T00:34:16;34.44;32.56;36.64;;
71020;Laerm;58902;51.436;5.980;2022-12-18T00:34:27;34.78;32.94;43.95;;
71020;Laerm;58902;51.436;5.980;2022-12-18T00:34:37;42.68;31.22;65.76;;
71020;Laerm;58902;51.436;5.980;2022-12-18T00:34:47;33.82;32.12;36.34;;
71020;Laerm;58902;51.436;5.980;2022-12-18T00:34:58;36.96;34.22;39.56;;
71020;Laerm;58902;51.436;5.980;2022-12-18T00:35:08;34.73;33.11;37.97;;
71020;Laerm;58902;51.436;5.980;2022-12-18T00:35:18;34.04;32.66;44.83;;
71020;Laerm;58902;51.436;5.980;2022-12-18T00:35:29;37.43;33.13;55.98;;
71020;Laerm;58902;51.436;5.980;2022-12-18T00:35:39;33.89;32.44;36.25;;
71020;Laerm;58902;51.436;5.980;2022-12-18T00:35:50;33.99;32.65;35.13;;
71020;Laerm;58902;51.436;5.980;2022-12-18T00:36:14;34.38;30.46;36.07;;
71020;Laerm;58902;51.436;5.980;2022-12-18T00:36:26;35.53;30.58;52.90;;
71020;Laerm;58902;51.436;5.980;2022-12-18T00:36:37;32.30;29.69;38.79;;
71020;Laerm;58902;51.436;5.980;2022-12-18T00:36:47;31.70;29.94;33.93;;
71020;Laerm;58902;51.436;5.980;2022-12-18T00:36:58;31.11;29.69;32.32;;
71020;Laerm;58902;51.436;5.980;2022-12-18T00:37:08;30.71;28.75;33.44;;
71020;Laerm;58902;51.436;5.980;2022-12-18T00:37:18;30.53;29.30;32.01;;
71020;Laerm;58902;51.436;5.980;2022-12-18T00:37:33;31.08;29.56;32.82;;
71020;Laerm;58902;51.436;5.980;2022-12-18T00:37:43;31.16;29.50;32.53;;
71020;Laerm;58902;51.436;5.980;2022-12-18T00:37:53;31.78;29.74;34.06;;
71020;Laerm;58902;51.436;5.980;2022-12-18T00:38:04;31.17;29.70;32.78;;
71020;Laerm;58902;51.436;5.980;2022-12-18T00:38:16;30.69;29.43;33.31;;
71020;Laerm;58902;51.436;5.980;2022-12-18T00:38:26;30.62;29.13;31.84;;
71020;Laerm;58902;51.436;5.980;2022-12-18T00:38:38;31.53;28.79;33.64;;
71020;Laerm;58902;51.436;5.980;2022-12-18T00:38:48;32.21;30.66;33.88;;
71020;Laerm;58902;51.436;5.980;2022-12-18T00:38:59;32.23;30.41;34.14;;
71020;Laerm;58902;51.436;5.980;2022-12-18T00:39:10;35.66;30.80;39.08;;
71020;Laerm;58902;51.436;5.980;2022-12-18T00:39:21;33.55;31.31;34.96;;
71020;Laerm;58902;51.436;5.980;2022-12-18T00:39:32;33.53;31.24;34.78;;
71020;Laerm;58902;51.436;5.980;2022-12-18T00:39:42;33.40;31.61;35.36;;
71020;Laerm;58902;51.436;5.980;2022-12-18T00:39:52;34.47;32.19;37.80;;
71020;Laerm;58902;51.436;5.980;2022-12-18T00:40:03;34.44;32.29;37.34;;
71020;Laerm;58902;51.436;5.980;2022-12-18T00:40:13;33.42;32.14;35.03;;
71020;Laerm;58902;51.436;5.980;2022-12-18T00:40:24;34.06;32.53;35.29;;
71020;Laerm;58902;51.436;5.980;2022-12-18T00:40:34;33.54;30.96;35.83;;
71020;Laerm;58902;51.436;5.980;2022-12-18T00:40:44;33.07;31.16;34.62;;
71020;Laerm;58902;51.436;5.980;2022-12-18T00:40:55;33.07;31.54;34.70;;
71020;Laerm;58902;51.436;5.980;2022-12-18T00:41:06;33.30;31.37;35.16;;
71020;Laerm;58902;51.436;5.980;2022-12-18T00:41:17;33.15;31.90;34.78;;
71020;Laerm;58902;51.436;5.980;2022-12-18T00:41:47;32.10;29.77;37.65;;
71020;Laerm;58902;51.436;5.980;2022-12-18T00:42:16;32.74;29.36;43.07;;
71020;Laerm;58902;51.436;5.980;2022-12-18T00:42:46;33.93;29.83;38.59;;
71020;Laerm;58902;51.436;5.980;2022-12-18T00:43:05;38.71;34.50;42.96;;
71020;Laerm;58902;51.436;5.980;2022-12-18T00:43:15;36.57;34.02;41.07;;
71020;Laerm;58902;51.436;5.980;2022-12-18T00:43:26;36.88;34.90;40.39;;
71020;Laerm;58902;51.436;5.980;2022-12-18T00:43:37;37.92;34.82;43.68;;
71020;Laerm;58902;51.436;5.980;2022-12-18T00:43:47;42.17;36.42;51.87;;
71020;Laerm;58902;51.436;5.980;2022-12-18T00:43:57;39.33;35.81;45.35;;
71020;Laerm;58902;51.436;5.980;2022-12-18T00:44:11;37.37;32.49;42.24;;
71020;Laerm;58902;51.436;5.980;2022-12-18T00:44:22;34.16;31.96;36.09;;
71020;Laerm;58902;51.436;5.980;2022-12-18T00:44:32;32.99;29.75;36.15;;
71020;Laerm;58902;51.436;5.980;2022-12-18T00:44:43;31.68;29.89;33.50;;
71020;Laerm;58902;51.436;5.980;2022-12-18T00:44:53;34.88;32.11;38.22;;
71020;Laerm;58902;51.436;5.980;2022-12-18T00:45:04;37.45;35.53;39.88;;
71020;Laerm;58902;51.436;5.980;2022-12-18T00:45:14;34.79;30.38;37.16;;
71020;Laerm;58902;51.436;5.980;2022-12-18T00:45:25;31.50;30.10;34.04;;
71020;Laerm;58902;51.436;5.980;2022-12-18T00:45:38;32.00;30.28;33.58;;
71020;Laerm;58902;51.436;5.980;2022-12-18T00:45:48;33.31;31.17;36.18;;
71020;Laerm;58902;51.436;5.980;2022-12-18T00:45:59;34.01;32.40;35.52;;
71020;Laerm;58902;51.436;5.980;2022-12-18T00:46:09;34.16;32.51;39.23;;
71020;Laerm;58902;51.436;5.980;2022-12-18T00:46:20;33.76;32.10;35.26;;
71020;Laerm;58902;51.436;5.980;2022-12-18T00:46:30;33.75;31.81;35.15;;
71020;Laerm;58902;51.436;5.980;2022-12-18T00:46:41;33.78;32.05;35.58;;
71020;Laerm;58902;51.436;5.980;2022-12-18T00:46:52;34.10;32.02;47.89;;
71020;Laerm;58902;51.436;5.980;2022-12-18T00:47:02;33.51;32.11;35.12;;
71020;Laerm;58902;51.436;5.980;2022-12-18T00:47:12;42.26;32.09;47.82;;
71020;Laerm;58902;51.436;5.980;2022-12-18T00:47:23;43.78;35.40;49.26;;
71020;Laerm;58902;51.436;5.980;2022-12-18T00:47:33;37.53;35.07;40.05;;
71020;Laerm;58902;51.436;5.980;2022-12-18T00:47:44;48.35;37.24;53.70;;
71020;Laerm;58902;51.436;5.980;2022-12-18T00:47:55;41.71;38.68;44.67;;
71020;Laerm;58902;51.436;5.980;2022-12-18T00:48:05;77.98;40.97;87.28;;
71020;Laerm;58902;51.436;5.980;2022-12-18T00:48:16;70.94;67.75;76.02;;
71020;Laerm;58902;51.436;5.980;2022-12-18T00:48:26;70.97;68.42;72.99;;
71020;Laerm;58902;51.436;5.980;2022-12-18T00:48:37;62.40;46.86;72.07;;
71020;Laerm;58902;51.436;5.980;2022-12-18T00:48:47;46.26;41.97;53.35;;
71020;Laerm;58902;51.436;5.980;2022-12-18T00:48:58;42.48;38.30;45.53;;
71020;Laerm;58902;51.436;5.980;2022-12-18T00:49:08;39.41;35.93;42.17;;
71020;Laerm;58902;51.436;5.980;2022-12-18T00:49:19;39.27;36.50;42.47;;
71020;Laerm;58902;51.436;5.980;2022-12-18T00:49:30;36.11;33.74;39.45;;
71020;Laerm;58902;51.436;5.980;2022-12-18T00:49:40;33.57;31.42;37.33;;
71020;Laerm;58902;51.436;5.980;2022-12-18T00:49:50;33.19;31.29;37.50;;
71020;Laerm;58902;51.436;5.980;2022-12-18T00:50:01;33.24;30.94;36.11;;
71020;Laerm;58902;51.436;5.980;2022-12-18T00:50:12;33.81;31.83;36.87;;
71020;Laerm;58902;51.436;5.980;2022-12-18T00:50:23;35.01;32.13;38.41;;
71020;Laerm;58902;51.436;5.980;2022-12-18T00:50:34;37.69;34.32;43.72;;
71020;Laerm;58902;51.436;5.980;2022-12-18T00:50:44;40.07;36.98;42.91;;
71020;Laerm;58902;51.436;5.980;2022-12-18T00:50:54;47.95;33.35;54.59;;
71020;Laerm;58902;51.436;5.980;2022-12-18T00:51:05;32.37;30.83;35.15;;
71020;Laerm;58902;51.436;5.980;2022-12-18T00:51:16;32.85;31.25;34.64;;
71020;Laerm;58902;51.436;5.980;2022-12-18T00:51:27;32.22;30.77;33.55;;
71020;Laerm;58902;51.436;5.980;2022-12-18T00:51:37;33.65;31.49;35.34;;
71020;Laerm;58902;51.436;5.980;2022-12-18T00:51:48;36.25;34.17;39.79;;
71020;Laerm;58902;51.436;5.980;2022-12-18T00:51:58;37.98;32.63;41.92;;
71020;Laerm;58902;51.436;5.980;2022-12-18T00:52:08;32.89;31.51;34.95;;
71020;Laerm;58902;51.436;5.980;2022-12-18T00:52:19;33.53;30.72;35.10;;
71020;Laerm;58902;51.436;5.980;2022-12-18T00:52:30;32.83;31.06;35.00;;
71020;Laerm;58902;51.436;5.980;2022-12-18T00:52:40;34.39;30.94;35.57;;
71020;Laerm;58902;51.436;5.980;2022-12-18T00:52:51;31.94;30.10;33.61;;
71020;Laerm;58902;51.436;5.980;2022-12-18T00:53:01;32.14;30.73;33.40;;
71020;Laerm;58902;51.436;5.980;2022-12-18T00:53:11;32.15;30.82;33.66;;
71020;Laerm;58902;51.436;5.980;2022-12-18T00:53:22;35.11;30.87;36.38;;
71020;Laerm;58902;51.436;5.980;2022-12-18T00:53:32;35.46;34.35;36.39;;
71020;Laerm;58902;51.436;5.980;2022-12-18T00:53:43;36.06;30.97;37.14;;
71020;Laerm;58902;51.436;5.980;2022-12-18T00:53:53;33.57;32.16;34.98;;
71020;Laerm;58902;51.436;5.980;2022-12-18T00:54:04;33.09;31.83;34.40;;
71020;Laerm;58902;51.436;5.980;2022-12-18T00:54:15;32.95;31.42;34.50;;
71020;Laerm;58902;51.436;5.980;2022-12-18T00:54:25;32.74;30.73;34.48;;
71020;Laerm;58902;51.436;5.980;2022-12-18T00:54:35;34.43;32.26;36.28;;
71020;Laerm;58902;51.436;5.980;2022-12-18T00:54:46;32.41;30.62;36.06;;
71020;Laerm;58902;51.436;5.980;2022-12-18T00:54:56;32.98;31.37;34.37;;
71020;Laerm;58902;51.436;5.980;2022-12-18T00:55:06;33.44;32.29;34.75;;
71020;Laerm;58902;51.436;5.980;2022-12-18T00:55:17;32.52;30.29;34.30;;
71020;Laerm;58902;51.436;5.980;2022-12-18T00:55:28;31.33;29.95;33.18;;
71020;Laerm;58902;51.436;5.980;2022-12-18T00:55:38;31.39;29.99;33.13;;
71020;Laerm;58902;51.436;5.980;2022-12-18T00:55:49;31.97;30.18;37.69;;
71020;Laerm;58902;51.436;5.980;2022-12-18T00:55:59;32.22;30.65;37.42;;
71020;Laerm;58902;51.436;5.980;2022-12-18T00:56:10;33.35;31.64;35.15;;
71020;Laerm;58902;51.436;5.980;2022-12-18T00:56:20;33.35;31.19;35.53;;
71020;Laerm;58902;51.436;5.980;2022-12-18T00:56:31;33.96;31.03;37.77;;
71020;Laerm;58902;51.436;5.980;2022-12-18T00:56:41;31.83;30.34;33.32;;
71020;Laerm;58902;51.436;5.980;2022-12-18T00:56:51;31.34;29.87;33.12;;
71020;Laerm;58902;51.436;5.980;2022-12-18T00:57:02;31.10;29.88;32.39;;
71020;Laerm;58902;51.436;5.980;2022-12-18T00:57:12;31.29;29.66;36.00;;
71020;Laerm;58902;51.436;5.980;2022-12-18T00:57:23;31.11;29.79;32.86;;
71020;Laerm;58902;51.436;5.980;2022-12-18T00:57:33;30.66;29.55;31.95;;
71020;Laerm;58902;51.436;5.980;2022-12-18T00:57:43;30.75;29.45;32.51;;
71020;Laerm;58902;51.436;5.980;2022-12-18T00:57:54;30.93;29.50;32.80;;
71020;Laerm;58902;51.436;5.980;2022-12-18T00:58:04;30.76;29.39;32.68;;
71020;Laerm;58902;51.436;5.980;2022-12-18T00:58:16;30.73;29.27;33.60;;
71020;Laerm;58902;51.436;5.980;2022-12-18T00:58:26;30.79;29.55;32.10;;
71020;Laerm;58902;51.436;5.980;2022-12-18T00:58:36;32.34;29.66;45.63;;
71020;Laerm;58902;51.436;5.980;2022-12-18T00:58:47;31.13;29.34;33.90;;
71020;Laerm;58902;51.436;5.980;2022-12-18T00:58:57;31.36;30.07;33.64;;
71020;Laerm;58902;51.436;5.980;2022-12-18T00:59:07;32.07;29.53;43.85;;
71020;Laerm;58902;51.436;5.980;2022-12-18T00:59:18;37.41;32.59;43.24;;
71020;Laerm;58902;51.436;5.980;2022-12-18T00:59:28;36.13;30.83;41.24;;
71020;Laerm;58902;51.436;5.980;2022-12-18T00:59:40;31.28;29.97;33.01;;
71020;Laerm;58902;51.436;5.980;2022-12-18T00:59:50;32.16;29.41;45.49;;
71020;Laerm;58902;51.436;5.980;2022-12-18T01:00:01;32.40;29.82;35.58;;
71020;Laerm;58902;51.436;5.980;2022-12-18T01:00:12;44.25;32.26;54.20;;
71020;Laerm;58902;51.436;5.980;2022-12-18T01:00:23;31.99;29.64;35.00;;
71020;Laerm;58902;51.436;5.980;2022-12-18T01:00:33;33.49;29.53;49.00;;
71020;Laerm;58902;51.436;5.980;2022-12-18T01:00:44;31.28;29.78;38.35;;
71020;Laerm;58902;51.436;5.980;2022-12-18T01:00:54;32.28;30.32;37.11;;
71020;Laerm;58902;51.436;5.980;2022-12-18T01:01:05;31.68;30.16;33.67;;
71020;Laerm;58902;51.436;5.980;2022-12-18T01:01:15;31.51;29.80;33.47;;
71020;Laerm;58902;51.436;5.980;2022-12-18T01:01:26;32.59;30.94;37.41;;
71020;Laerm;58902;51.436;5.980;2022-12-18T01:01:36;33.42;30.88;35.99;;
71020;Laerm;58902;51.436;5.980;2022-12-18T01:01:47;32.71;30.84;34.36;;